Time,TemperatureF,DewpointF,PressureIn,WindDirection,WindDirectionDegrees,WindSpeedMPH,WindSpeedGustMPH,Humidity,HourlyPrecipIn,Conditions,Clouds,dailyrainin,SoftwareType,DateUTC
2013-04-30 00:04:00,35.9,26.0,30.01,NNW,342,0.0,0.0,67,0.00,,,0.00,Wunderground v.1.15,2013-04-30 07:04:00,
2013-04-30 00:10:00,35.6,25.7,30.01,NNW,342,0.0,1.0,67,0.00,,,0.00,Wunderground v.1.15,2013-04-30 07:10:00,
2013-04-30 00:16:00,35.5,25.6,30.01,NNW,338,1.0,1.0,67,0.00,,,0.00,Wunderground v.1.15,2013-04-30 07:16:00,
2013-04-30 00:22:00,35.3,25.4,30.02,NNW,338,0.0,1.0,67,0.00,,,0.00,Wunderground v.1.15,2013-04-30 07:22:00,
2013-04-30 00:28:00,35.0,25.5,30.01,NNW,338,0.0,2.0,68,0.00,,,0.00,Wunderground v.1.15,2013-04-30 07:28:00,
2013-04-30 00:34:00,34.8,25.3,30.02,NNW,338,1.0,1.0,68,0.00,,,0.00,Wunderground v.1.15,2013-04-30 07:34:00,
2013-04-30 00:40:00,34.8,25.0,30.02,NW,325,1.0,1.0,67,0.00,,,0.00,Wunderground v.1.15,2013-04-30 07:40:00,
2013-04-30 00:46:00,34.9,25.0,30.02,NW,308,2.0,4.0,67,0.00,,,0.00,Wunderground v.1.15,2013-04-30 07:46:00,
2013-04-30 00:52:00,35.0,24.8,30.02,NW,304,3.0,3.0,66,0.00,,,0.00,Wunderground v.1.15,2013-04-30 07:52:00,
2013-04-30 00:58:00,34.8,24.6,30.02,NW,321,3.0,3.0,66,0.00,,,0.00,Wunderground v.1.15,2013-04-30 07:58:00,
2013-04-30 01:04:00,34.5,24.7,30.02,NW,319,4.0,4.0,67,0.00,,,0.00,Wunderground v.1.15,2013-04-30 08:04:00,
2013-04-30 01:10:00,34.2,24.4,30.02,NW,314,3.0,3.0,67,0.00,,,0.00,Wunderground v.1.15,2013-04-30 08:10:00,
2013-04-30 01:16:00,34.2,24.7,30.02,WNW,298,4.0,5.0,68,0.00,,,0.00,Wunderground v.1.15,2013-04-30 08:16:00,
2013-04-30 01:22:00,34.2,24.7,30.02,WNW,299,5.0,7.0,68,0.00,,,0.00,Wunderground v.1.15,2013-04-30 08:22:00,
2013-04-30 01:28:00,34.3,24.5,30.02,WNW,293,5.0,7.0,67,0.00,,,0.00,Wunderground v.1.15,2013-04-30 08:28:00,
2013-04-30 01:34:00,34.3,24.5,30.02,WNW,293,3.0,5.0,67,0.00,,,0.00,Wunderground v.1.15,2013-04-30 08:34:00,
2013-04-30 01:40:00,34.0,24.2,30.03,WNW,293,0.0,0.0,67,0.00,,,0.00,Wunderground v.1.15,2013-04-30 08:40:00,
2013-04-30 01:46:00,33.8,24.4,30.03,WNW,293,0.0,0.0,68,0.00,,,0.00,Wunderground v.1.15,2013-04-30 08:46:00,
2013-04-30 01:52:00,33.5,24.1,30.03,WNW,293,0.0,0.0,68,0.00,,,0.00,Wunderground v.1.15,2013-04-30 08:52:00,
2013-04-30 01:58:00,33.4,24.3,30.03,WNW,293,0.0,0.0,69,0.00,,,0.00,Wunderground v.1.15,2013-04-30 08:58:00,
2013-04-30 02:04:00,33.2,24.1,30.03,WNW,293,0.0,0.0,69,0.00,,,0.00,Wunderground v.1.15,2013-04-30 09:04:00,
2013-04-30 02:10:00,32.9,24.2,30.04,WNW,293,0.0,0.0,70,0.00,,,0.00,Wunderground v.1.15,2013-04-30 09:10:00,
2013-04-30 02:16:00,32.5,23.8,30.04,WNW,293,0.0,0.0,70,0.00,,,0.00,Wunderground v.1.15,2013-04-30 09:16:00,
2013-04-30 02:22:00,32.2,23.8,30.04,WNW,293,0.0,0.0,71,0.00,,,0.00,Wunderground v.1.15,2013-04-30 09:22:00,
2013-04-30 02:28:00,31.9,23.6,30.04,WNW,293,0.0,0.0,71,0.00,,,0.00,Wunderground v.1.15,2013-04-30 09:28:00,
2013-04-30 02:34:00,31.6,23.3,30.05,WNW,293,0.0,0.0,71,0.00,,,0.00,Wunderground v.1.15,2013-04-30 09:34:00,
2013-04-30 02:40:00,31.4,23.4,30.05,WNW,293,0.0,0.0,72,0.00,,,0.00,Wunderground v.1.15,2013-04-30 09:40:00,
2013-04-30 02:46:00,31.4,23.4,30.06,WNW,297,1.0,3.0,72,0.00,,,0.00,Wunderground v.1.15,2013-04-30 09:46:00,
2013-04-30 02:52:00,31.7,23.4,30.06,NW,323,2.0,5.0,71,0.00,,,0.00,Wunderground v.1.15,2013-04-30 09:52:00,
2013-04-30 02:58:00,31.9,23.6,30.06,NW,323,2.0,5.0,71,0.00,,,0.00,Wunderground v.1.15,2013-04-30 09:58:00,
2013-04-30 03:04:00,31.8,23.1,30.06,NW,323,2.0,5.0,70,0.00,,,0.00,Wunderground v.1.15,2013-04-30 10:04:00,
2013-04-30 03:10:00,31.8,23.1,30.07,NNW,327,2.0,3.0,70,0.00,,,0.00,Wunderground v.1.15,2013-04-30 10:10:00,
2013-04-30 03:16:00,31.9,22.9,30.07,NW,326,3.0,5.0,69,0.00,,,0.00,Wunderground v.1.15,2013-04-30 10:16:00,
2013-04-30 03:22:00,32.2,22.8,30.07,NW,323,4.0,8.0,68,0.00,,,0.00,Wunderground v.1.15,2013-04-30 10:22:00,
2013-04-30 03:28:00,32.3,22.9,30.08,NW,317,4.0,8.0,68,0.00,,,0.00,Wunderground v.1.15,2013-04-30 10:28:00,
2013-04-30 03:34:00,32.3,22.6,30.08,NW,320,4.0,8.0,67,0.00,,,0.00,Wunderground v.1.15,2013-04-30 10:34:00,
2013-04-30 03:40:00,32.4,22.7,30.08,NW,322,6.0,7.0,67,0.00,,,0.00,Wunderground v.1.15,2013-04-30 10:40:00,
2013-04-30 03:46:00,32.3,22.6,30.08,NW,314,5.0,7.0,67,0.00,,,0.00,Wunderground v.1.15,2013-04-30 10:46:00,
2013-04-30 03:52:00,32.0,22.6,30.08,NW,316,4.0,5.0,68,0.00,,,0.00,Wunderground v.1.15,2013-04-30 10:52:00,
2013-04-30 03:58:00,31.6,22.2,30.08,NW,315,4.0,5.0,68,0.00,,,0.00,Wunderground v.1.15,2013-04-30 10:58:00,
2013-04-30 04:04:00,31.1,22.5,30.08,NW,319,2.0,4.0,70,0.00,,,0.00,Wunderground v.1.15,2013-04-30 11:04:00,
2013-04-30 04:10:00,30.6,22.6,30.09,NW,319,2.0,2.0,72,0.00,,,0.00,Wunderground v.1.15,2013-04-30 11:10:00,
2013-04-30 04:16:00,30.3,22.4,30.09,NW,319,1.0,2.0,72,0.00,,,0.00,Wunderground v.1.15,2013-04-30 11:16:00,
2013-04-30 04:22:00,30.1,22.2,30.09,NNW,327,2.0,2.0,72,0.00,,,0.00,Wunderground v.1.15,2013-04-30 11:22:00,
2013-04-30 04:28:00,30.1,21.8,30.10,NNW,334,2.0,3.0,71,0.00,,,0.00,Wunderground v.1.15,2013-04-30 11:28:00,
2013-04-30 04:34:00,30.1,21.8,30.10,NNW,329,2.0,2.0,71,0.00,,,0.00,Wunderground v.1.15,2013-04-30 11:34:00,
2013-04-30 04:40:00,30.1,21.5,30.10,NNW,336,3.0,3.0,70,0.00,,,0.00,Wunderground v.1.15,2013-04-30 11:40:00,
2013-04-30 04:46:00,29.9,21.3,30.10,NNW,336,3.0,5.0,70,0.00,,,0.00,Wunderground v.1.15,2013-04-30 11:46:00,
2013-04-30 04:52:00,29.8,21.2,30.10,NNW,336,2.0,2.0,70,0.00,,,0.00,Wunderground v.1.15,2013-04-30 11:52:00,
2013-04-30 04:58:00,29.6,21.0,30.10,NNW,336,1.0,2.0,70,0.00,,,0.00,Wunderground v.1.15,2013-04-30 11:58:00,
2013-04-30 05:04:00,29.4,20.8,30.11,NNW,336,1.0,1.0,70,0.00,,,0.00,Wunderground v.1.15,2013-04-30 12:04:00,
2013-04-30 05:10:00,29.4,20.8,30.11,NNW,340,2.0,5.0,70,0.00,,,0.00,Wunderground v.1.15,2013-04-30 12:10:00,
2013-04-30 05:16:00,29.5,20.6,30.11,NNW,342,2.0,5.0,69,0.00,,,0.00,Wunderground v.1.15,2013-04-30 12:16:00,
2013-04-30 05:22:00,29.4,20.5,30.11,NNW,342,1.0,2.0,69,0.00,,,0.00,Wunderground v.1.15,2013-04-30 12:22:00,
2013-04-30 05:28:00,29.2,20.6,30.12,NNW,342,1.0,2.0,70,0.00,,,0.00,Wunderground v.1.15,2013-04-30 12:28:00,
2013-04-30 05:34:00,29.0,20.4,30.12,NNW,342,1.0,3.0,70,0.00,,,0.00,Wunderground v.1.15,2013-04-30 12:34:00,
2013-04-30 05:40:00,28.8,20.2,30.12,NNW,342,1.0,1.0,70,0.00,,,0.00,Wunderground v.1.15,2013-04-30 12:40:00,
2013-04-30 05:46:00,28.7,20.1,30.12,NNW,342,1.0,3.0,70,0.00,,,0.00,Wunderground v.1.15,2013-04-30 12:46:00,
2013-04-30 05:52:00,28.6,20.4,30.12,NNW,342,0.0,0.0,71,0.00,,,0.00,Wunderground v.1.15,2013-04-30 12:52:00,
2013-04-30 05:58:00,28.4,20.2,30.13,NNW,342,0.0,1.0,71,0.00,,,0.00,Wunderground v.1.15,2013-04-30 12:58:00,
2013-04-30 06:04:00,28.3,20.1,30.13,NNW,342,0.0,1.0,71,0.00,,,0.00,Wunderground v.1.15,2013-04-30 13:04:00,
2013-04-30 06:10:00,27.7,19.8,30.13,NNW,342,0.0,0.0,72,0.00,,,0.00,Wunderground v.1.15,2013-04-30 13:10:00,
2013-04-30 06:16:00,27.1,19.6,30.13,NNW,342,0.0,2.0,73,0.00,,,0.00,Wunderground v.1.15,2013-04-30 13:16:00,
2013-04-30 06:22:00,26.1,19.6,30.14,NNW,342,1.0,1.0,76,0.00,,,0.00,Wunderground v.1.15,2013-04-30 13:22:00,
2013-04-30 06:28:00,26.0,19.8,30.14,NNW,342,0.0,1.0,77,0.00,,,0.00,Wunderground v.1.15,2013-04-30 13:28:00,
2013-04-30 06:34:00,26.1,20.2,30.15,NNW,342,0.0,0.0,78,0.00,,,0.00,Wunderground v.1.15,2013-04-30 13:34:00,
2013-04-30 06:40:00,26.3,20.1,30.15,NNW,342,0.0,0.0,77,0.00,,,0.00,Wunderground v.1.15,2013-04-30 13:40:00,
2013-04-30 06:46:00,26.6,20.4,30.15,NNW,342,0.0,0.0,77,0.00,,,0.00,Wunderground v.1.15,2013-04-30 13:46:00,
2013-04-30 06:52:00,27.2,20.9,30.16,NNW,342,0.0,0.0,77,0.00,,,0.00,Wunderground v.1.15,2013-04-30 13:52:00,
2013-04-30 06:58:00,28.0,21.4,30.16,NNW,342,0.0,1.0,76,0.00,,,0.00,Wunderground v.1.15,2013-04-30 13:58:00,
2013-04-30 07:04:00,28.1,21.2,30.16,NNW,342,0.0,1.0,75,0.00,,,0.00,Wunderground v.1.15,2013-04-30 14:04:00,
2013-04-30 07:10:00,28.0,21.4,30.16,NNW,342,0.0,0.0,76,0.00,,,0.00,Wunderground v.1.15,2013-04-30 14:10:00,
2013-04-30 07:16:00,28.6,21.7,30.16,North,355,0.0,1.0,75,0.00,,,0.00,Wunderground v.1.15,2013-04-30 14:16:00,
2013-04-30 07:22:00,29.9,21.6,30.17,North,355,1.0,1.0,71,0.00,,,0.00,Wunderground v.1.15,2013-04-30 14:22:00,
2013-04-30 07:28:00,31.7,21.6,30.17,North,355,1.0,3.0,66,0.00,,,0.00,Wunderground v.1.15,2013-04-30 14:28:00,
2013-04-30 07:34:00,32.7,21.5,30.17,North,360,2.0,6.0,63,0.00,,,0.00,Wunderground v.1.15,2013-04-30 14:34:00,
2013-04-30 07:40:00,33.3,22.1,30.17,NNW,347,2.0,2.0,63,0.00,,,0.00,Wunderground v.1.15,2013-04-30 14:40:00,
2013-04-30 07:46:00,33.6,21.6,30.17,NNW,347,2.0,3.0,61,0.00,,,0.00,Wunderground v.1.15,2013-04-30 14:46:00,
2013-04-30 07:52:00,34.3,21.8,30.18,North,360,2.0,7.0,60,0.00,,,0.00,Wunderground v.1.15,2013-04-30 14:52:00,
2013-04-30 07:58:00,34.8,21.1,30.18,North,11,3.0,7.0,57,0.00,,,0.00,Wunderground v.1.15,2013-04-30 14:58:00,
2013-04-30 08:04:00,35.0,21.3,30.18,North,10,3.0,4.0,57,0.00,,,0.00,Wunderground v.1.15,2013-04-30 15:04:00,
2013-04-30 08:10:00,35.6,21.4,30.18,North,10,2.0,3.0,56,0.00,,,0.00,Wunderground v.1.15,2013-04-30 15:10:00,
2013-04-30 08:16:00,35.8,21.2,30.18,North,5,3.0,6.0,55,0.00,,,0.00,Wunderground v.1.15,2013-04-30 15:16:00,
2013-04-30 08:22:00,35.5,20.5,30.18,NW,311,4.0,10.0,54,0.00,,,0.00,Wunderground v.1.15,2013-04-30 15:22:00,
2013-04-30 08:28:00,35.6,21.0,30.18,NW,323,5.0,10.0,55,0.00,,,0.00,Wunderground v.1.15,2013-04-30 15:28:00,
2013-04-30 08:34:00,35.8,20.8,30.18,North,5,5.0,5.0,54,0.00,,,0.00,Wunderground v.1.15,2013-04-30 15:34:00,
2013-04-30 08:40:00,36.3,21.2,30.18,North,5,3.0,5.0,54,0.00,,,0.00,Wunderground v.1.15,2013-04-30 15:40:00,
2013-04-30 08:46:00,36.5,21.4,30.19,North,355,2.0,6.0,54,0.00,,,0.00,Wunderground v.1.15,2013-04-30 15:46:00,
2013-04-30 08:52:00,37.4,21.8,30.18,North,355,2.0,2.0,53,0.00,,,0.00,Wunderground v.1.15,2013-04-30 15:52:00,
2013-04-30 08:58:00,37.2,21.2,30.19,NNW,329,3.0,9.0,52,0.00,,,0.00,Wunderground v.1.15,2013-04-30 15:58:00,
2013-04-30 09:04:00,37.4,21.4,30.19,NNW,331,2.0,2.0,52,0.00,,,0.00,Wunderground v.1.15,2013-04-30 16:04:00,
2013-04-30 09:10:00,37.7,21.2,30.19,NNW,332,2.0,2.0,51,0.00,,,0.00,Wunderground v.1.15,2013-04-30 16:10:00,
2013-04-30 09:16:00,37.6,20.6,30.19,North,5,2.0,7.0,50,0.00,,,0.00,Wunderground v.1.15,2013-04-30 16:16:00,
2013-04-30 09:22:00,38.4,21.4,30.19,North,5,2.0,6.0,50,0.00,,,0.00,Wunderground v.1.15,2013-04-30 16:22:00,
2013-04-30 09:28:00,38.6,20.6,30.19,NNW,341,2.0,6.0,48,0.00,,,0.00,Wunderground v.1.15,2013-04-30 16:28:00,
2013-04-30 09:34:00,38.3,21.3,30.19,NW,322,3.0,4.0,50,0.00,,,0.00,Wunderground v.1.15,2013-04-30 16:34:00,
2013-04-30 09:40:00,38.2,21.2,30.19,NW,322,2.0,2.0,50,0.00,,,0.00,Wunderground v.1.15,2013-04-30 16:40:00,
2013-04-30 09:46:00,38.3,20.8,30.19,NW,322,1.0,2.0,49,0.00,,,0.00,Wunderground v.1.15,2013-04-30 16:46:00,
2013-04-30 09:52:00,38.2,20.7,30.19,NNW,340,2.0,4.0,49,0.00,,,0.00,Wunderground v.1.15,2013-04-30 16:52:00,
2013-04-30 09:58:00,38.3,20.8,30.20,NNW,343,2.0,4.0,49,0.00,,,0.00,Wunderground v.1.15,2013-04-30 16:58:00,
2013-04-30 10:04:00,38.5,21.0,30.19,NNW,344,2.0,4.0,49,0.00,,,0.00,Wunderground v.1.15,2013-04-30 17:04:00,
2013-04-30 10:10:00,39.5,21.9,30.19,East,79,1.0,8.0,49,0.00,,,0.00,Wunderground v.1.15,2013-04-30 17:10:00,
2013-04-30 10:16:00,40.0,21.9,30.19,ENE,78,3.0,9.0,48,0.00,,,0.00,Wunderground v.1.15,2013-04-30 17:16:00,
2013-04-30 10:22:00,39.2,21.6,30.20,East,92,5.0,7.0,49,0.00,,,0.00,Wunderground v.1.15,2013-04-30 17:22:00,
2013-04-30 10:28:00,40.1,21.5,30.20,East,92,4.0,7.0,47,0.00,,,0.00,Wunderground v.1.15,2013-04-30 17:28:00,
2013-04-30 10:34:00,40.4,21.2,30.20,East,86,3.0,7.0,46,0.00,,,0.00,Wunderground v.1.15,2013-04-30 17:34:00,
2013-04-30 10:40:00,41.3,21.5,30.20,East,86,2.0,2.0,45,0.00,,,0.00,Wunderground v.1.15,2013-04-30 17:40:00,
2013-04-30 10:46:00,42.0,21.6,30.20,East,86,2.0,2.0,44,0.00,,,0.00,Wunderground v.1.15,2013-04-30 17:46:00,
2013-04-30 10:52:00,41.6,21.8,30.20,East,81,3.0,3.0,45,0.00,,,0.00,Wunderground v.1.15,2013-04-30 17:52:00,
2013-04-30 10:58:00,42.7,21.7,30.20,ENE,74,3.0,3.0,43,0.00,,,0.00,Wunderground v.1.15,2013-04-30 17:58:00,
2013-04-30 11:04:00,43.2,21.1,30.20,ENE,67,2.0,3.0,41,0.00,,,0.00,Wunderground v.1.15,2013-04-30 18:04:00,
2013-04-30 11:10:00,43.3,21.7,30.20,ENE,67,2.0,2.0,42,0.00,,,0.00,Wunderground v.1.15,2013-04-30 18:10:00,
2013-04-30 11:16:00,43.6,22.0,30.20,ENE,66,1.0,4.0,42,0.00,,,0.00,Wunderground v.1.15,2013-04-30 18:16:00,
2013-04-30 11:22:00,44.0,21.2,30.20,ENE,66,2.0,3.0,40,0.00,,,0.00,Wunderground v.1.15,2013-04-30 18:22:00,
2013-04-30 11:28:00,44.2,20.2,30.20,NW,315,3.0,5.0,38,0.00,,,0.00,Wunderground v.1.15,2013-04-30 18:28:00,
2013-04-30 11:34:00,43.7,20.9,30.20,NW,311,5.0,7.0,40,0.00,,,0.00,Wunderground v.1.15,2013-04-30 18:34:00,
2013-04-30 11:40:00,44.0,20.6,30.20,NW,307,5.0,5.0,39,0.00,,,0.00,Wunderground v.1.15,2013-04-30 18:40:00,
2013-04-30 11:46:00,44.7,21.8,30.20,NW,318,5.0,7.0,40,0.00,,,0.00,Wunderground v.1.15,2013-04-30 18:46:00,
2013-04-30 11:52:00,45.4,22.5,30.20,WNW,292,4.0,9.0,40,0.00,,,0.00,Wunderground v.1.15,2013-04-30 18:52:00,
2013-04-30 11:58:00,45.4,22.5,30.20,WNW,288,7.0,13.0,40,0.00,,,0.00,Wunderground v.1.15,2013-04-30 18:58:00,
2013-04-30 12:04:00,45.3,21.8,30.20,WNW,286,7.0,13.0,39,0.00,,,0.00,Wunderground v.1.15,2013-04-30 19:04:00,
2013-04-30 12:10:00,45.1,21.6,30.19,WNW,289,7.0,9.0,39,0.00,,,0.00,Wunderground v.1.15,2013-04-30 19:10:00,
2013-04-30 12:16:00,46.2,22.0,30.20,NW,312,5.0,9.0,38,0.00,,,0.00,Wunderground v.1.15,2013-04-30 19:16:00,
2013-04-30 12:22:00,45.7,21.5,30.20,NW,319,6.0,13.0,38,0.00,,,0.00,Wunderground v.1.15,2013-04-30 19:22:00,
2013-04-30 12:28:00,45.5,22.5,30.20,WNW,290,7.0,13.0,40,0.00,,,0.00,Wunderground v.1.15,2013-04-30 19:28:00,
2013-04-30 12:34:00,45.9,21.7,30.20,NW,309,6.0,7.0,38,0.00,,,0.00,Wunderground v.1.15,2013-04-30 19:34:00,
2013-04-30 12:40:00,46.4,21.5,30.20,NNE,19,6.0,11.0,37,0.00,,,0.00,Wunderground v.1.15,2013-04-30 19:40:00,
2013-04-30 12:46:00,46.9,22.0,30.20,WNW,296,6.0,11.0,37,0.00,,,0.00,Wunderground v.1.15,2013-04-30 19:46:00,
2013-04-30 12:52:00,47.4,23.0,30.20,NNW,332,6.0,11.0,38,0.00,,,0.00,Wunderground v.1.15,2013-04-30 19:52:00,
2013-04-30 12:58:00,47.7,22.0,30.20,NNE,17,7.0,11.0,36,0.00,,,0.00,Wunderground v.1.15,2013-04-30 19:58:00,
2013-04-30 13:04:00,47.6,21.3,30.21,WNW,296,6.0,16.0,35,0.00,,,0.00,Wunderground v.1.15,2013-04-30 20:04:00,
2013-04-30 13:10:00,47.1,20.8,30.21,NW,324,7.0,7.0,35,0.00,,,0.00,Wunderground v.1.15,2013-04-30 20:10:00,
2013-04-30 13:16:00,47.6,21.3,30.21,NW,320,7.0,8.0,35,0.00,,,0.00,Wunderground v.1.15,2013-04-30 20:16:00,
2013-04-30 13:22:00,47.1,20.1,30.21,WSW,243,6.0,6.0,34,0.00,,,0.00,Wunderground v.1.15,2013-04-30 20:22:00,
2013-04-30 13:28:00,47.7,20.7,30.21,NNE,23,6.0,6.0,34,0.00,,,0.00,Wunderground v.1.15,2013-04-30 20:28:00,
2013-04-30 13:34:00,47.4,19.7,30.21,NW,304,5.0,11.0,33,0.00,,,0.00,Wunderground v.1.15,2013-04-30 20:34:00,
2013-04-30 13:40:00,47.9,20.8,30.21,NW,313,5.0,5.0,34,0.00,,,0.00,Wunderground v.1.15,2013-04-30 20:40:00,
2013-04-30 13:46:00,48.0,20.2,30.21,NW,318,8.0,9.0,33,0.00,,,0.00,Wunderground v.1.15,2013-04-30 20:46:00,
2013-04-30 13:52:00,47.9,20.8,30.21,North,350,8.0,9.0,34,0.00,,,0.00,Wunderground v.1.15,2013-04-30 20:52:00,
2013-04-30 13:58:00,48.1,21.0,30.21,NW,309,7.0,9.0,34,0.00,,,0.00,Wunderground v.1.15,2013-04-30 20:58:00,
2013-04-30 14:04:00,48.1,22.4,30.21,West,277,7.0,9.0,36,0.00,,,0.00,Wunderground v.1.15,2013-04-30 21:04:00,
2013-04-30 14:10:00,48.9,20.3,30.21,NW,313,6.0,6.0,32,0.00,,,0.00,Wunderground v.1.15,2013-04-30 21:10:00,
2013-04-30 14:16:00,49.2,22.7,30.21,North,350,6.0,15.0,35,0.00,,,0.00,Wunderground v.1.15,2013-04-30 21:16:00,
2013-04-30 14:22:00,48.6,22.1,30.22,WNW,292,8.0,8.0,35,0.00,,,0.00,Wunderground v.1.15,2013-04-30 21:22:00,
2013-04-30 14:28:00,48.5,21.4,30.21,WNW,299,7.0,9.0,34,0.00,,,0.00,Wunderground v.1.15,2013-04-30 21:28:00,
2013-04-30 14:34:00,48.7,20.8,30.22,WNW,295,9.0,15.0,33,0.00,,,0.00,Wunderground v.1.15,2013-04-30 21:34:00,
2013-04-30 14:40:00,49.9,21.2,30.22,WNW,303,7.0,7.0,32,0.00,,,0.00,Wunderground v.1.15,2013-04-30 21:40:00,
2013-04-30 14:46:00,50.3,23.0,30.22,NW,311,6.0,12.0,34,0.00,,,0.00,Wunderground v.1.15,2013-04-30 21:46:00,
2013-04-30 14:52:00,50.1,22.8,30.22,NW,313,9.0,9.0,34,0.00,,,0.00,Wunderground v.1.15,2013-04-30 21:52:00,
2013-04-30 14:58:00,49.9,22.6,30.22,WNW,299,9.0,9.0,34,0.00,,,0.00,Wunderground v.1.15,2013-04-30 21:58:00,
2013-04-30 15:04:00,49.9,21.2,30.22,WSW,254,8.0,13.0,32,0.00,,,0.00,Wunderground v.1.15,2013-04-30 22:04:00,
2013-04-30 15:10:00,50.1,22.8,30.22,NW,318,7.0,10.0,34,0.00,,,0.00,Wunderground v.1.15,2013-04-30 22:10:00,
2013-04-30 15:16:00,49.9,21.9,30.22,WNW,301,8.0,12.0,33,0.00,,,0.00,Wunderground v.1.15,2013-04-30 22:16:00,
2013-04-30 15:22:00,50.2,22.2,30.22,WNW,302,7.0,9.0,33,0.00,,,0.00,Wunderground v.1.15,2013-04-30 22:22:00,
2013-04-30 15:28:00,50.1,22.1,30.22,WNW,298,8.0,15.0,33,0.00,,,0.00,Wunderground v.1.15,2013-04-30 22:28:00,
2013-04-30 15:34:00,50.8,22.0,30.22,NW,321,9.0,11.0,32,0.00,,,0.00,Wunderground v.1.15,2013-04-30 22:34:00,
2013-04-30 15:40:00,50.4,22.3,30.22,WNW,296,9.0,9.0,33,0.00,,,0.00,Wunderground v.1.15,2013-04-30 22:40:00,
2013-04-30 15:46:00,50.6,21.8,30.22,NNW,340,9.0,16.0,32,0.00,,,0.00,Wunderground v.1.15,2013-04-30 22:46:00,
2013-04-30 15:52:00,50.9,22.1,30.22,NW,318,10.0,10.0,32,0.00,,,0.00,Wunderground v.1.15,2013-04-30 22:52:00,
2013-04-30 15:58:00,50.5,21.7,30.22,NW,321,10.0,13.0,32,0.00,,,0.00,Wunderground v.1.15,2013-04-30 22:58:00,
2013-04-30 16:04:00,50.5,22.4,30.22,WNW,298,9.0,10.0,33,0.00,,,0.00,Wunderground v.1.15,2013-04-30 23:04:00,
2013-04-30 16:10:00,51.1,21.5,30.22,NW,317,6.0,10.0,31,0.00,,,0.00,Wunderground v.1.15,2013-04-30 23:10:00,
2013-04-30 16:16:00,51.5,21.8,30.22,WNW,286,5.0,9.0,31,0.00,,,0.00,Wunderground v.1.15,2013-04-30 23:16:00,
2013-04-30 16:22:00,51.0,21.4,30.22,WNW,289,7.0,13.0,31,0.00,,,0.00,Wunderground v.1.15,2013-04-30 23:22:00,
2013-04-30 16:28:00,50.8,21.2,30.22,NW,319,8.0,13.0,31,0.00,,,0.00,Wunderground v.1.15,2013-04-30 23:28:00,
2013-04-30 16:34:00,51.1,22.2,30.22,NW,309,7.0,8.0,32,0.00,,,0.00,Wunderground v.1.15,2013-04-30 23:34:00,
2013-04-30 16:40:00,51.7,22.8,30.22,North,355,5.0,8.0,32,0.00,,,0.00,Wunderground v.1.15,2013-04-30 23:40:00,
2013-04-30 16:46:00,52.1,22.3,30.23,NW,326,6.0,9.0,31,0.00,,,0.00,Wunderground v.1.15,2013-04-30 23:46:00,
2013-04-30 16:52:00,51.5,21.8,30.23,NW,325,7.0,10.0,31,0.00,,,0.00,Wunderground v.1.15,2013-04-30 23:52:00,
2013-04-30 16:58:00,51.2,20.8,30.24,NW,309,6.0,10.0,30,0.00,,,0.00,Wunderground v.1.15,2013-04-30 23:58:00,
2013-04-30 17:04:00,51.6,23.4,30.23,NW,308,5.0,7.0,33,0.00,,,0.00,Wunderground v.1.15,2013-05-01 00:04:00,
2013-04-30 17:10:00,50.8,22.7,30.23,North,360,6.0,6.0,33,0.00,,,0.00,Wunderground v.1.15,2013-05-01 00:10:00,
2013-04-30 17:16:00,51.2,23.0,30.24,NW,306,5.0,6.0,33,0.00,,,0.00,Wunderground v.1.15,2013-05-01 00:16:00,
2013-04-30 17:22:00,51.9,22.9,30.24,North,350,3.0,6.0,32,0.00,,,0.00,Wunderground v.1.15,2013-05-01 00:22:00,
2013-04-30 17:28:00,51.5,23.3,30.23,ENE,71,4.0,6.0,33,0.00,,,0.00,Wunderground v.1.15,2013-05-01 00:28:00,
2013-04-30 17:34:00,51.0,22.9,30.24,NNE,28,4.0,7.0,33,0.00,,,0.00,Wunderground v.1.15,2013-05-01 00:34:00,
2013-04-30 17:40:00,50.8,23.4,30.24,NNE,18,4.0,6.0,34,0.00,,,0.00,Wunderground v.1.15,2013-05-01 00:40:00,
2013-04-30 17:46:00,50.0,22.7,30.24,ENE,65,4.0,6.0,34,0.00,,,0.00,Wunderground v.1.15,2013-05-01 00:46:00,
2013-04-30 17:52:00,49.9,23.3,30.25,NE,35,4.0,7.0,35,0.00,,,0.00,Wunderground v.1.15,2013-05-01 00:52:00,
2013-04-30 17:58:00,49.5,22.9,30.25,NE,49,4.0,7.0,35,0.00,,,0.00,Wunderground v.1.15,2013-05-01 00:58:00,
2013-04-30 18:04:00,49.3,23.4,30.25,NNE,17,3.0,5.0,36,0.00,,,0.00,Wunderground v.1.15,2013-05-01 01:04:00,
2013-04-30 18:10:00,48.8,23.0,30.25,NNE,20,4.0,6.0,36,0.00,,,0.00,Wunderground v.1.15,2013-05-01 01:10:00,
2013-04-30 18:16:00,48.5,22.7,30.25,East,80,4.0,8.0,36,0.00,,,0.00,Wunderground v.1.15,2013-05-01 01:16:00,
2013-04-30 18:22:00,48.1,22.4,30.26,NE,49,5.0,8.0,36,0.00,,,0.00,Wunderground v.1.15,2013-05-01 01:22:00,
2013-04-30 18:28:00,47.6,23.2,30.26,NE,48,5.0,8.0,38,0.00,,,0.00,Wunderground v.1.15,2013-05-01 01:28:00,
2013-04-30 18:34:00,47.4,23.0,30.26,ENE,71,4.0,8.0,38,0.00,,,0.00,Wunderground v.1.15,2013-05-01 01:34:00,
2013-04-30 18:40:00,47.2,23.5,30.26,ENE,63,5.0,9.0,39,0.00,,,0.00,Wunderground v.1.15,2013-05-01 01:40:00,
2013-04-30 18:46:00,47.1,24.0,30.27,NE,42,4.0,9.0,40,0.00,,,0.00,Wunderground v.1.15,2013-05-01 01:46:00,
2013-04-30 18:52:00,46.8,23.7,30.27,NNE,19,4.0,8.0,40,0.00,,,0.00,Wunderground v.1.15,2013-05-01 01:52:00,
2013-04-30 18:58:00,46.6,23.5,30.27,NNE,21,3.0,12.0,40,0.00,,,0.00,Wunderground v.1.15,2013-05-01 01:58:00,
2013-04-30 19:04:00,46.2,23.2,30.27,NE,45,3.0,5.0,40,0.00,,,0.00,Wunderground v.1.15,2013-05-01 02:04:00,
2013-04-30 19:10:00,45.8,23.4,30.28,ENE,67,3.0,13.0,41,0.00,,,0.00,Wunderground v.1.15,2013-05-01 02:10:00,
2013-04-30 19:16:00,45.5,23.7,30.28,NNE,14,3.0,6.0,42,0.00,,,0.00,Wunderground v.1.15,2013-05-01 02:16:00,
2013-04-30 19:22:00,45.0,23.3,30.28,NNE,19,3.0,11.0,42,0.00,,,0.00,Wunderground v.1.15,2013-05-01 02:22:00,
2013-04-30 19:30:00,44.3,23.2,30.29,NE,41,4.0,11.0,43,0.00,,,0.00,Wunderground v.1.15,2013-05-01 02:30:00,
2013-04-30 19:36:00,44.0,23.5,30.29,NNE,31,3.0,4.0,44,0.00,,,0.00,Wunderground v.1.15,2013-05-01 02:36:00,
2013-04-30 19:42:00,43.7,23.2,30.29,NE,54,2.0,2.0,44,0.00,,,0.00,Wunderground v.1.15,2013-05-01 02:42:00,
2013-04-30 19:48:00,43.4,23.4,30.30,ENE,60,2.0,4.0,45,0.00,,,0.00,Wunderground v.1.15,2013-05-01 02:48:00,
2013-04-30 19:54:00,43.0,23.1,30.30,NE,48,3.0,4.0,45,0.00,,,0.00,Wunderground v.1.15,2013-05-01 02:54:00,
2013-04-30 20:02:00,42.3,23.0,30.30,NE,41,2.0,2.0,46,0.00,,,0.00,Wunderground v.1.15,2013-05-01 03:02:00,
2013-04-30 20:08:00,41.7,22.9,30.30,NNE,20,2.0,2.0,47,0.00,,,0.00,Wunderground v.1.15,2013-05-01 03:08:00,
2013-04-30 20:14:00,41.3,23.1,30.30,NNE,19,2.0,4.0,48,0.00,,,0.00,Wunderground v.1.15,2013-05-01 03:14:00,
2013-04-30 20:20:00,40.9,22.7,30.31,NNE,19,1.0,4.0,48,0.00,,,0.00,Wunderground v.1.15,2013-05-01 03:20:00,
2013-04-30 20:26:00,40.5,22.8,30.31,NNE,22,1.0,5.0,49,0.00,,,0.00,Wunderground v.1.15,2013-05-01 03:26:00,
2013-04-30 20:32:00,40.2,22.5,30.32,NNE,17,1.0,1.0,49,0.00,,,0.00,Wunderground v.1.15,2013-05-01 03:32:00,
2013-04-30 20:38:00,39.9,22.7,30.32,NNE,17,1.0,6.0,50,0.00,,,0.00,Wunderground v.1.15,2013-05-01 03:38:00,
2013-04-30 20:44:00,39.7,22.6,30.32,NNE,23,1.0,1.0,50,0.00,,,0.00,Wunderground v.1.15,2013-05-01 03:44:00,
2013-04-30 20:50:00,39.4,22.8,30.33,NNE,23,0.0,3.0,51,0.00,,,0.00,Wunderground v.1.15,2013-05-01 03:50:00,
2013-04-30 20:56:00,38.9,22.8,30.33,NNE,23,1.0,3.0,52,0.00,,,0.00,Wunderground v.1.15,2013-05-01 03:56:00,
2013-04-30 21:01:00,38.6,22.9,30.33,NNE,15,2.0,3.0,53,0.00,,,0.00,Wunderground v.1.15,2013-05-01 04:01:00,
2013-04-30 21:02:00,38.4,22.7,30.33,NNE,16,3.0,5.0,53,0.00,,,0.00,Wunderground v.1.15,2013-05-01 04:02:00,
2013-04-30 21:04:00,38.3,23.1,30.33,North,5,3.0,5.0,54,0.00,,,0.00,Wunderground v.1.15,2013-05-01 04:04:00,
2013-04-30 21:06:00,38.3,23.1,30.33,North,5,3.0,5.0,54,0.00,,,0.00,Wunderground v.1.15,2013-05-01 04:06:00,
2013-04-30 21:12:00,38.2,23.0,30.34,North,5,2.0,2.0,54,0.00,,,0.00,Wunderground v.1.15,2013-05-01 04:12:00,
2013-04-30 21:18:00,38.1,23.3,30.34,North,5,1.0,2.0,55,0.00,,,0.00,Wunderground v.1.15,2013-05-01 04:18:00,
2013-04-30 21:20:00,38.0,23.3,30.34,North,5,0.0,0.0,55,0.00,,,0.00,Wunderground v.1.15,2013-05-01 04:20:00,
2013-04-30 21:26:00,37.7,23.0,30.35,North,5,0.0,0.0,55,0.00,,,0.00,Wunderground v.1.15,2013-05-01 04:26:00,
2013-04-30 21:32:00,37.4,23.1,30.35,North,5,0.0,0.0,56,0.00,,,0.00,Wunderground v.1.15,2013-05-01 04:32:00,
2013-04-30 21:38:00,37.2,23.4,30.35,North,5,0.0,0.0,57,0.00,,,0.00,Wunderground v.1.15,2013-05-01 04:38:00,
2013-04-30 21:44:00,36.9,23.1,30.35,North,5,0.0,0.0,57,0.00,,,0.00,Wunderground v.1.15,2013-05-01 04:44:00,
2013-04-30 21:50:00,36.7,23.3,30.36,North,5,0.0,0.0,58,0.00,,,0.00,Wunderground v.1.15,2013-05-01 04:50:00,
2013-04-30 21:56:00,36.4,23.4,30.36,North,5,0.0,0.0,59,0.00,,,0.00,Wunderground v.1.15,2013-05-01 04:56:00,
2013-04-30 22:02:00,36.2,23.6,30.37,North,5,0.0,0.0,60,0.00,,,0.00,Wunderground v.1.15,2013-05-01 05:02:00,
2013-04-30 22:08:00,36.0,23.0,30.37,North,5,0.0,0.0,59,0.00,,,0.00,Wunderground v.1.15,2013-05-01 05:08:00,
2013-04-30 22:14:00,35.8,23.3,30.37,North,5,0.0,0.0,60,0.00,,,0.00,Wunderground v.1.15,2013-05-01 05:14:00,
2013-04-30 22:20:00,35.7,23.6,30.38,North,5,0.0,0.0,61,0.00,,,0.00,Wunderground v.1.15,2013-05-01 05:20:00,
2013-04-30 22:26:00,35.6,23.5,30.38,North,5,0.0,0.0,61,0.00,,,0.00,Wunderground v.1.15,2013-05-01 05:26:00,
2013-04-30 22:32:00,35.3,23.6,30.38,North,5,0.0,0.0,62,0.00,,,0.00,Wunderground v.1.15,2013-05-01 05:32:00,
2013-04-30 22:38:00,34.8,23.1,30.39,North,5,0.0,0.0,62,0.00,,,0.00,Wunderground v.1.15,2013-05-01 05:38:00,
2013-04-30 22:44:00,34.3,23.0,30.39,North,5,0.0,0.0,63,0.00,,,0.00,Wunderground v.1.15,2013-05-01 05:44:00,
2013-04-30 22:50:00,34.1,23.6,30.39,North,5,0.0,0.0,65,0.00,,,0.00,Wunderground v.1.15,2013-05-01 05:50:00,
2013-04-30 22:56:00,33.8,23.3,30.39,North,5,0.0,0.0,65,0.00,,,0.00,Wunderground v.1.15,2013-05-01 05:56:00,
2013-04-30 23:02:00,33.5,23.4,30.39,North,5,0.0,0.0,66,0.00,,,0.00,Wunderground v.1.15,2013-05-01 06:02:00,
2013-04-30 23:08:00,33.1,23.3,30.39,North,5,0.0,0.0,67,0.00,,,0.00,Wunderground v.1.15,2013-05-01 06:08:00,
2013-04-30 23:14:00,32.6,23.2,30.39,North,5,0.0,0.0,68,0.00,,,0.00,Wunderground v.1.15,2013-05-01 06:14:00,
2013-04-30 23:20:00,32.4,23.4,30.39,North,5,0.0,0.0,69,0.00,,,0.00,Wunderground v.1.15,2013-05-01 06:20:00,
2013-04-30 23:26:00,32.5,23.1,30.39,North,5,0.0,0.0,68,0.00,,,0.00,Wunderground v.1.15,2013-05-01 06:26:00,
2013-04-30 23:32:00,32.2,23.2,30.40,North,5,0.0,0.0,69,0.00,,,0.00,Wunderground v.1.15,2013-05-01 06:32:00,
2013-04-30 23:38:00,31.9,23.2,30.40,North,5,0.0,0.0,70,0.00,,,0.00,Wunderground v.1.15,2013-05-01 06:38:00,
2013-04-30 23:44:00,31.5,22.8,30.40,North,5,0.0,0.0,70,0.00,,,0.00,Wunderground v.1.15,2013-05-01 06:44:00,
2013-04-30 23:50:00,31.4,22.7,30.40,North,5,0.0,1.0,70,0.00,,,0.00,Wunderground v.1.15,2013-05-01 06:50:00,
2013-04-30 23:56:00,31.0,23.0,30.40,North,5,0.0,0.0,72,0.00,,,0.00,Wunderground v.1.15,2013-05-01 06:56:00,